createdAt,value
2018-07-25T00:00:31.848Z,21.74
2018-07-25T00:03:36.065Z,21.70
2018-07-25T00:06:40.265Z,21.66
2018-07-25T00:09:44.497Z,21.63
2018-07-25T00:12:48.708Z,21.59
2018-07-25T00:15:52.920Z,21.57
2018-07-25T00:18:57.104Z,21.54
2018-07-25T00:22:01.330Z,21.53
2018-07-25T00:25:05.585Z,21.53
2018-07-25T00:28:09.822Z,21.52
2018-07-25T00:31:14.012Z,21.51
2018-07-25T00:34:18.244Z,21.47
2018-07-25T00:37:22.449Z,21.44
2018-07-25T00:40:26.687Z,21.41
2018-07-25T00:43:30.914Z,21.36
2018-07-25T00:46:35.193Z,21.32
2018-07-25T00:49:39.394Z,21.31
2018-07-25T00:52:43.609Z,21.29
2018-07-25T00:55:47.821Z,21.25
2018-07-25T00:58:52.050Z,21.21
2018-07-25T01:01:56.280Z,21.19
2018-07-25T01:05:00.514Z,21.16
2018-07-25T01:08:04.720Z,21.15
2018-07-25T01:11:09.002Z,21.14
2018-07-25T01:14:13.212Z,21.11
2018-07-25T01:17:17.485Z,21.08
2018-07-25T01:20:21.681Z,21.03
2018-07-25T01:23:25.919Z,20.97
2018-07-25T01:26:30.118Z,20.92
2018-07-25T01:29:34.120Z,20.86
2018-07-25T01:32:38.356Z,20.83
2018-07-25T01:35:42.629Z,20.81
2018-07-25T01:38:46.824Z,20.76
2018-07-25T01:41:51.060Z,20.72
2018-07-25T01:44:55.260Z,20.69
2018-07-25T01:47:59.497Z,20.66
2018-07-25T01:51:03.740Z,20.64
2018-07-25T01:54:07.963Z,20.63
2018-07-25T01:57:12.219Z,20.61
2018-07-25T02:00:16.473Z,20.57
2018-07-25T02:03:20.705Z,20.54
2018-07-25T02:06:25.717Z,20.51
2018-07-25T02:09:29.940Z,20.50
2018-07-25T02:12:34.264Z,20.46
2018-07-25T02:15:38.452Z,20.42
2018-07-25T02:18:42.689Z,20.40
2018-07-25T02:21:46.892Z,20.38
2018-07-25T02:24:51.145Z,20.35
2018-07-25T02:27:55.397Z,20.34
2018-07-25T02:31:00.047Z,20.31
2018-07-25T02:34:09.637Z,20.28
2018-07-25T02:37:13.865Z,20.26
2018-07-25T02:40:18.220Z,20.25
2018-07-25T02:43:22.443Z,20.22
2018-07-25T02:46:26.678Z,20.21
2018-07-25T02:49:30.936Z,20.17
2018-07-25T02:52:35.165Z,20.15
2018-07-25T02:55:39.394Z,20.12
2018-07-25T02:58:43.618Z,20.09
2018-07-25T03:01:47.853Z,20.05
2018-07-25T03:04:52.077Z,20.01
2018-07-25T03:07:56.278Z,19.96
2018-07-25T03:11:00.510Z,19.93
2018-07-25T03:14:04.742Z,19.91
2018-07-25T03:17:09.139Z,19.87
2018-07-25T03:20:13.425Z,19.83
2018-07-25T03:23:17.614Z,19.80
2018-07-25T03:26:21.843Z,19.78
2018-07-25T03:29:26.049Z,19.76
2018-07-25T03:32:30.245Z,19.74
2018-07-25T03:35:34.445Z,19.74
2018-07-25T03:38:38.668Z,19.75
2018-07-25T03:41:42.888Z,19.73
2018-07-25T03:44:47.128Z,19.73
2018-07-25T03:47:51.344Z,19.72
2018-07-25T03:50:55.597Z,19.71
2018-07-25T03:53:59.837Z,19.70
2018-07-25T03:57:04.114Z,19.68
2018-07-25T04:00:08.313Z,19.66
2018-07-25T04:03:12.542Z,19.67
2018-07-25T04:06:16.767Z,19.69
2018-07-25T04:09:20.977Z,19.70
2018-07-25T04:12:25.356Z,19.70
2018-07-25T04:15:29.349Z,19.71
2018-07-25T04:18:33.549Z,19.77
2018-07-25T04:21:37.746Z,19.83
2018-07-25T04:24:41.986Z,19.88
2018-07-25T04:27:46.978Z,19.92
2018-07-25T04:30:51.216Z,19.98
2018-07-25T04:33:55.427Z,20.05
2018-07-25T04:36:59.634Z,20.11
2018-07-25T04:40:03.873Z,20.17
2018-07-25T04:43:08.096Z,20.21
2018-07-25T04:46:12.368Z,20.27
2018-07-25T04:49:16.553Z,20.32
2018-07-25T04:52:20.772Z,20.37
2018-07-25T04:55:24.993Z,20.42
2018-07-25T04:58:29.881Z,20.49
2018-07-25T05:01:34.121Z,20.57
2018-07-25T05:04:38.329Z,20.65
2018-07-25T05:07:42.557Z,20.73
2018-07-25T05:10:46.785Z,20.82
2018-07-25T05:13:51.004Z,21.02
2018-07-25T05:16:55.232Z,21.10
2018-07-25T05:19:59.457Z,21.19
2018-07-25T05:23:03.666Z,21.27
2018-07-25T05:26:07.842Z,21.41
2018-07-25T05:29:12.070Z,21.54
2018-07-25T05:32:16.281Z,21.65
2018-07-25T05:35:20.488Z,21.77
2018-07-25T05:38:24.715Z,21.92
2018-07-25T05:41:28.961Z,22.03
2018-07-25T05:44:33.196Z,22.13
2018-07-25T05:47:37.448Z,22.26
2018-07-25T05:50:41.717Z,22.41
2018-07-25T05:53:46.086Z,22.54
2018-07-25T05:56:50.322Z,22.67
2018-07-25T05:59:54.504Z,22.82
2018-07-25T06:02:58.721Z,23.04
2018-07-25T06:06:02.985Z,23.19
2018-07-25T06:09:09.427Z,23.34
2018-07-25T06:12:13.642Z,23.53
2018-07-25T06:15:17.633Z,23.70
2018-07-25T06:18:21.828Z,23.87
2018-07-25T06:21:26.029Z,23.99
2018-07-25T06:24:30.220Z,24.08
2018-07-25T06:27:34.538Z,24.20
2018-07-25T06:30:38.753Z,24.33
2018-07-25T06:33:42.959Z,24.52
2018-07-25T06:36:47.150Z,24.66
2018-07-25T06:39:51.385Z,24.77
2018-07-25T06:42:55.656Z,24.89
2018-07-25T06:45:59.852Z,24.98
2018-07-25T06:49:04.312Z,25.07
2018-07-25T06:52:08.531Z,25.16
2018-07-25T06:55:12.760Z,25.21
2018-07-25T06:58:16.949Z,25.25
2018-07-25T07:01:21.140Z,25.29
2018-07-25T07:04:25.369Z,25.37
2018-07-25T07:07:29.568Z,25.45
2018-07-25T07:10:33.819Z,25.56
2018-07-25T07:13:38.035Z,25.64
2018-07-25T07:16:42.256Z,25.75
2018-07-25T07:19:46.468Z,25.89
2018-07-25T07:22:50.697Z,26.03
2018-07-25T07:25:54.978Z,26.18
2018-07-25T07:28:59.129Z,26.33
2018-07-25T07:32:03.340Z,26.48
2018-07-25T07:35:07.544Z,26.61
2018-07-25T07:38:11.764Z,26.72
2018-07-25T07:41:15.965Z,26.84
2018-07-25T07:44:20.176Z,26.97
2018-07-25T07:47:24.388Z,27.08
2018-07-25T07:50:28.580Z,27.20
2018-07-25T07:53:32.792Z,27.35
2018-07-25T07:56:36.987Z,27.47
2018-07-25T07:59:41.181Z,27.59
2018-07-25T08:02:45.384Z,27.70
2018-07-25T08:05:49.609Z,27.82
2018-07-25T08:08:53.809Z,27.92
2018-07-25T08:11:58.053Z,27.97
2018-07-25T08:15:02.253Z,28.07
2018-07-25T08:18:06.459Z,28.14
2018-07-25T08:21:10.769Z,28.24
2018-07-25T08:24:14.952Z,28.40
2018-07-25T08:27:19.210Z,28.53
2018-07-25T08:30:23.197Z,28.63
2018-07-25T08:33:27.421Z,28.73
2018-07-25T08:36:31.632Z,28.76
2018-07-25T08:39:35.915Z,28.91
2018-07-25T08:42:42.258Z,29.13
2018-07-25T08:45:51.458Z,29.25
2018-07-25T08:48:56.127Z,29.35
2018-07-25T08:52:00.925Z,29.48
2018-07-25T08:55:05.427Z,29.59
2018-07-25T08:58:10.934Z,29.72
2018-07-25T09:01:18.555Z,29.92
2018-07-25T09:04:24.518Z,30.08
2018-07-25T09:07:29.005Z,30.20
2018-07-25T09:10:33.212Z,30.33
2018-07-25T09:13:37.449Z,30.47
2018-07-25T09:16:41.719Z,30.56
2018-07-25T09:19:46.089Z,30.64
2018-07-25T09:22:50.309Z,30.67
2018-07-25T09:25:54.551Z,30.78
2018-07-25T09:28:58.754Z,30.90
2018-07-25T09:32:02.992Z,30.93
2018-07-25T09:35:07.236Z,31.01
2018-07-25T09:38:11.490Z,31.05
2018-07-25T09:41:15.722Z,31.19
2018-07-25T09:44:19.940Z,31.29
2018-07-25T09:47:24.199Z,31.29
2018-07-25T09:50:28.391Z,31.12
2018-07-25T09:53:32.647Z,31.17
2018-07-25T09:56:36.869Z,31.27
2018-07-25T09:59:40.871Z,31.37
2018-07-25T10:02:45.129Z,31.41
2018-07-25T10:05:49.305Z,31.43
2018-07-25T10:08:53.537Z,31.48
2018-07-25T10:11:57.764Z,31.47
2018-07-25T10:15:01.999Z,31.59
2018-07-25T10:18:06.384Z,31.66
2018-07-25T10:21:10.597Z,31.82
2018-07-25T10:24:14.846Z,31.91
2018-07-25T10:27:19.112Z,32.02
2018-07-25T10:30:23.469Z,32.01
2018-07-25T10:33:27.741Z,32.02
2018-07-25T10:36:31.960Z,32.20
2018-07-25T10:39:36.196Z,32.29
2018-07-25T10:42:40.457Z,32.35
2018-07-25T10:45:44.624Z,32.34
2018-07-25T10:48:48.873Z,32.37
2018-07-25T10:51:53.074Z,32.46
2018-07-25T10:54:57.296Z,32.50
2018-07-25T10:58:01.542Z,32.36
2018-07-25T11:01:05.832Z,32.31
2018-07-25T11:04:10.049Z,32.24
2018-07-25T11:07:14.277Z,32.19
2018-07-25T11:10:18.499Z,32.12
2018-07-25T11:13:22.697Z,32.10
2018-07-25T11:16:27.002Z,32.12
2018-07-25T11:19:31.196Z,32.15
2018-07-25T11:22:35.449Z,32.22
2018-07-25T11:25:39.665Z,32.19
2018-07-25T11:28:43.917Z,32.18
2018-07-25T11:31:48.153Z,32.36
2018-07-25T11:34:52.373Z,32.48
2018-07-25T11:37:56.625Z,32.49
2018-07-25T11:41:01.236Z,32.51
2018-07-25T11:44:05.448Z,32.67
2018-07-25T11:47:09.662Z,32.77
2018-07-25T11:50:13.957Z,32.71
2018-07-25T11:53:18.162Z,32.62
2018-07-25T11:56:22.401Z,32.55
2018-07-25T11:59:26.632Z,32.51
2018-07-25T12:02:30.828Z,32.57
2018-07-25T12:05:35.041Z,32.68
2018-07-25T12:08:39.277Z,32.76
2018-07-25T12:11:46.500Z,32.88
2018-07-25T12:14:50.742Z,32.90
2018-07-25T12:17:54.940Z,32.97
2018-07-25T12:20:59.188Z,33.09
2018-07-25T12:24:03.398Z,33.11
2018-07-25T12:27:07.627Z,33.27
2018-07-25T12:30:11.860Z,33.40
2018-07-25T12:33:15.957Z,33.42
2018-07-25T12:36:20.373Z,33.27
2018-07-25T12:39:24.641Z,33.26
2018-07-25T12:42:28.855Z,33.36
2018-07-25T12:45:33.092Z,33.44
2018-07-25T12:48:37.325Z,33.52
2018-07-25T12:51:41.568Z,33.61
2018-07-25T12:54:45.809Z,33.68
2018-07-25T12:57:49.799Z,33.73
2018-07-25T13:00:54.042Z,33.84
2018-07-25T13:03:58.298Z,33.73
2018-07-25T13:07:02.535Z,33.77
2018-07-25T13:10:06.820Z,33.74
2018-07-25T13:13:11.065Z,33.71
2018-07-25T13:16:15.322Z,33.73
2018-07-25T13:19:19.571Z,33.86
2018-07-25T13:22:23.826Z,33.92
2018-07-25T13:25:28.081Z,34.03
2018-07-25T13:28:32.351Z,34.18
2018-07-25T13:31:36.559Z,34.26
2018-07-25T13:34:40.804Z,34.03
2018-07-25T13:37:45.025Z,33.87
2018-07-25T13:40:49.250Z,33.59
2018-07-25T13:43:53.465Z,33.50
2018-07-25T13:46:57.691Z,33.53
2018-07-25T13:50:01.932Z,33.64
2018-07-25T13:53:06.313Z,33.65
2018-07-25T13:56:10.561Z,33.69
2018-07-25T13:59:14.544Z,33.85
2018-07-25T14:02:18.792Z,33.98
2018-07-25T14:05:23.026Z,34.17
2018-07-25T14:08:27.234Z,34.27
2018-07-25T14:11:31.540Z,34.34
2018-07-25T14:14:35.692Z,34.18
2018-07-25T14:17:39.926Z,34.10
2018-07-25T14:20:44.558Z,34.10
2018-07-25T14:23:48.886Z,34.09
2018-07-25T14:26:53.091Z,34.11
2018-07-25T14:29:57.342Z,34.25
2018-07-25T14:33:01.560Z,34.32
2018-07-25T14:36:06.166Z,34.46
2018-07-25T14:39:11.398Z,34.42
2018-07-25T14:42:15.645Z,34.43
2018-07-25T14:45:19.845Z,34.39
2018-07-25T14:48:24.049Z,34.35
2018-07-25T14:51:28.320Z,34.39
2018-07-25T14:54:32.522Z,34.42
2018-07-25T14:57:36.749Z,34.47
2018-07-25T15:00:40.985Z,34.41
2018-07-25T15:03:45.241Z,34.41
2018-07-25T15:06:49.488Z,34.45
2018-07-25T15:09:53.701Z,34.38
2018-07-25T15:12:59.549Z,34.03
2018-07-25T15:16:03.761Z,33.22
2018-07-25T15:19:08.034Z,32.32
2018-07-25T15:22:12.264Z,31.33
2018-07-25T15:25:16.518Z,30.50
2018-07-25T15:28:20.768Z,30.32
2018-07-25T15:31:25.037Z,30.58
2018-07-25T15:34:29.293Z,30.97
2018-07-25T15:37:33.545Z,31.05
2018-07-25T15:40:37.805Z,31.17
2018-07-25T15:43:42.020Z,31.25
2018-07-25T15:46:46.274Z,31.55
2018-07-25T15:49:50.444Z,31.96
2018-07-25T15:52:54.734Z,32.36
2018-07-25T15:55:58.917Z,32.68
2018-07-25T15:59:04.149Z,32.62
2018-07-25T16:02:09.176Z,32.63
2018-07-25T16:05:13.401Z,32.58
2018-07-25T16:08:17.657Z,32.42
2018-07-25T16:11:21.905Z,32.24
2018-07-25T16:14:26.177Z,32.05
2018-07-25T16:17:30.404Z,31.73
2018-07-25T16:20:34.645Z,31.47
2018-07-25T16:23:39.012Z,31.31
2018-07-25T16:26:43.264Z,31.13
2018-07-25T16:29:47.492Z,30.91
2018-07-25T16:32:51.732Z,30.71
2018-07-25T16:35:56.082Z,30.53
2018-07-25T16:39:00.300Z,30.35
2018-07-25T16:42:04.534Z,30.25
2018-07-25T16:45:08.774Z,30.21
2018-07-25T16:48:13.029Z,30.16
2018-07-25T16:51:17.252Z,30.13
2018-07-25T16:54:21.529Z,30.00
2018-07-25T16:57:25.773Z,30.01
2018-07-25T17:00:30.022Z,29.90
2018-07-25T17:03:34.288Z,29.79
2018-07-25T17:06:38.556Z,29.72
2018-07-25T17:09:42.834Z,29.71
2018-07-25T17:12:47.074Z,29.78
2018-07-25T17:15:51.328Z,29.73
2018-07-25T17:18:55.613Z,29.67
2018-07-25T17:21:59.882Z,29.64
2018-07-25T17:25:04.187Z,29.59
2018-07-25T17:28:08.449Z,29.55
2018-07-25T17:31:12.717Z,29.50
2018-07-25T17:34:16.972Z,29.50
2018-07-25T17:37:21.238Z,29.53
2018-07-25T17:40:25.545Z,29.55
2018-07-25T17:43:29.837Z,29.49
2018-07-25T17:46:34.076Z,29.48
2018-07-25T17:49:38.341Z,29.44
2018-07-25T17:52:42.579Z,29.39
2018-07-25T17:55:46.841Z,29.40
2018-07-25T17:58:51.053Z,29.41
2018-07-25T18:01:55.347Z,29.39
2018-07-25T18:04:59.352Z,29.35
2018-07-25T18:08:03.607Z,29.32
2018-07-25T18:11:07.834Z,29.34
2018-07-25T18:14:15.260Z,29.33
2018-07-25T18:17:19.498Z,29.29
2018-07-25T18:20:23.766Z,29.25
2018-07-25T18:23:28.009Z,29.18
2018-07-25T18:26:32.236Z,29.17
2018-07-25T18:29:36.458Z,29.16
2018-07-25T18:32:40.700Z,29.12
2018-07-25T18:35:44.951Z,29.10
2018-07-25T18:38:49.141Z,29.04
2018-07-25T18:41:53.340Z,28.97
2018-07-25T18:44:57.553Z,28.91
2018-07-25T18:48:01.766Z,28.85
2018-07-25T18:51:06.189Z,28.79
2018-07-25T18:54:10.417Z,28.75
2018-07-25T18:57:14.621Z,28.69
2018-07-25T19:00:18.845Z,28.62
2018-07-25T19:03:23.063Z,28.56
2018-07-25T19:06:27.300Z,28.49
2018-07-25T19:09:31.510Z,28.41
2018-07-25T19:12:35.728Z,28.33
2018-07-25T19:15:39.959Z,28.25
2018-07-25T19:18:44.155Z,28.19
2018-07-25T19:21:48.377Z,28.12
2018-07-25T19:24:52.608Z,28.03
2018-07-25T19:27:56.801Z,27.93
2018-07-25T19:31:01.021Z,27.81
2018-07-25T19:34:05.204Z,27.69
2018-07-25T19:37:09.449Z,27.61
2018-07-25T19:40:13.673Z,27.54
2018-07-25T19:43:17.927Z,27.46
2018-07-25T19:46:22.134Z,27.33
2018-07-25T19:49:26.366Z,27.17
2018-07-25T19:52:30.556Z,27.02
2018-07-25T19:55:34.805Z,26.87
2018-07-25T19:58:39.021Z,26.72
2018-07-25T20:01:43.209Z,26.61
2018-07-25T20:04:47.465Z,26.49
2018-07-25T20:07:51.669Z,26.36
2018-07-25T20:10:55.865Z,26.27
2018-07-25T20:14:05.445Z,26.15
2018-07-25T20:17:09.647Z,26.05
2018-07-25T20:20:13.889Z,25.94
2018-07-25T20:23:18.101Z,25.86
2018-07-25T20:26:22.323Z,25.77
2018-07-25T20:29:26.533Z,25.68
2018-07-25T20:32:30.736Z,25.63
2018-07-25T20:35:34.940Z,25.54
2018-07-25T20:38:39.150Z,25.44
2018-07-25T20:41:43.357Z,25.36
2018-07-25T20:44:47.573Z,25.27
2018-07-25T20:47:51.809Z,25.19
2018-07-25T20:50:56.044Z,25.09
2018-07-25T20:54:00.273Z,25.00
2018-07-25T20:57:04.537Z,24.91
2018-07-25T21:00:08.820Z,24.84
2018-07-25T21:03:13.002Z,24.74
2018-07-25T21:06:17.226Z,24.68
2018-07-25T21:09:21.451Z,24.63
2018-07-25T21:12:25.788Z,24.57
2018-07-25T21:15:30.038Z,24.49
2018-07-25T21:18:34.229Z,24.42
2018-07-25T21:21:38.525Z,24.36
2018-07-25T21:24:42.667Z,24.31
2018-07-25T21:27:46.922Z,24.26
2018-07-25T21:30:51.117Z,24.22
2018-07-25T21:33:55.320Z,24.16
2018-07-25T21:36:59.530Z,24.11
2018-07-25T21:40:03.793Z,24.06
2018-07-25T21:43:07.993Z,24.01
2018-07-25T21:46:12.192Z,23.96
2018-07-25T21:49:16.386Z,23.88
2018-07-25T21:52:20.636Z,23.85
2018-07-25T21:55:24.848Z,23.81
2018-07-25T21:58:29.066Z,23.75
2018-07-25T22:01:33.260Z,23.70
2018-07-25T22:04:37.526Z,23.64
2018-07-25T22:07:41.769Z,23.61
2018-07-25T22:10:45.990Z,23.58
2018-07-25T22:13:55.713Z,23.51
2018-07-25T22:16:59.899Z,23.47
2018-07-25T22:20:04.169Z,23.47
2018-07-25T22:23:08.412Z,23.45
2018-07-25T22:26:12.824Z,23.42
2018-07-25T22:29:17.018Z,23.38
2018-07-25T22:32:21.233Z,23.35
2018-07-25T22:35:25.472Z,23.33
2018-07-25T22:38:29.686Z,23.29
2018-07-25T22:41:33.904Z,23.28
2018-07-25T22:44:38.132Z,23.23
2018-07-25T22:47:42.346Z,23.20
2018-07-25T22:50:46.602Z,23.14
2018-07-25T22:53:50.828Z,23.09
2018-07-25T22:56:55.053Z,23.07
2018-07-25T22:59:59.266Z,23.02
2018-07-25T23:03:03.485Z,22.98
2018-07-25T23:06:07.760Z,22.92
2018-07-25T23:09:12.644Z,22.84
2018-07-25T23:12:16.840Z,22.78
2018-07-25T23:15:21.168Z,22.76
2018-07-25T23:18:25.386Z,22.72
2018-07-25T23:21:29.608Z,22.68
2018-07-25T23:24:33.846Z,22.66
2018-07-25T23:27:38.049Z,22.63
2018-07-25T23:30:42.329Z,22.58
2018-07-25T23:33:47.376Z,22.53
2018-07-25T23:36:51.597Z,22.52
2018-07-25T23:39:55.837Z,22.51
2018-07-25T23:43:00.040Z,22.50
2018-07-25T23:46:04.265Z,22.47
2018-07-25T23:49:08.475Z,22.44
2018-07-25T23:52:12.710Z,22.41
2018-07-25T23:55:16.920Z,22.36
2018-07-25T23:58:21.137Z,22.29
